sensor_id;sensor_type;location;lat;lon;timestamp;pressure;altitude;pressure_sealevel;temperature;humidity
2188;BME280;1100;52.014;8.540;2023-03-14T00:02:15;97628.66;;;10.04;78.67
2188;BME280;1100;52.014;8.540;2023-03-14T00:04:41;97618.31;;;9.99;78.79
2188;BME280;1100;52.014;8.540;2023-03-14T00:07:06;97623.59;;;10.03;78.80
2188;BME280;1100;52.014;8.540;2023-03-14T00:09:31;97641.28;;;10.05;78.80
2188;BME280;1100;52.014;8.540;2023-03-14T00:11:57;97647.09;;;10.07;78.95
2188;BME280;1100;52.014;8.540;2023-03-14T00:14:22;97662.50;;;10.08;78.83
2188;BME280;1100;52.014;8.540;2023-03-14T00:16:48;97658.19;;;10.07;78.96
2188;BME280;1100;52.014;8.540;2023-03-14T00:19:14;97664.78;;;10.10;78.94
2188;BME280;1100;52.014;8.540;2023-03-14T00:21:39;97658.47;;;10.09;78.89
2188;BME280;1100;52.014;8.540;2023-03-14T00:24:05;97650.13;;;10.09;78.88
2188;BME280;1100;52.014;8.540;2023-03-14T00:26:31;97641.03;;;10.03;78.92
2188;BME280;1100;52.014;8.540;2023-03-14T00:28:56;97643.78;;;9.97;78.87
2188;BME280;1100;52.014;8.540;2023-03-14T00:31:21;97656.84;;;9.91;78.83
2188;BME280;1100;52.014;8.540;2023-03-14T00:33:47;97653.28;;;9.85;78.78
2188;BME280;1100;52.014;8.540;2023-03-14T00:36:15;97661.81;;;9.81;79.09
2188;BME280;1100;52.014;8.540;2023-03-14T00:38:42;97655.25;;;9.79;79.13
2188;BME280;1100;52.014;8.540;2023-03-14T00:41:10;97648.94;;;9.78;79.36
2188;BME280;1100;52.014;8.540;2023-03-14T00:43:37;97649.47;;;9.82;79.52
2188;BME280;1100;52.014;8.540;2023-03-14T00:46:03;97635.09;;;9.84;79.43
2188;BME280;1100;52.014;8.540;2023-03-14T00:48:28;97630.84;;;9.89;79.43
2188;BME280;1100;52.014;8.540;2023-03-14T00:50:54;97611.97;;;9.93;79.33
2188;BME280;1100;52.014;8.540;2023-03-14T00:53:19;97610.41;;;9.92;79.46
2188;BME280;1100;52.014;8.540;2023-03-14T00:55:45;97607.66;;;9.92;79.42
2188;BME280;1100;52.014;8.540;2023-03-14T00:58:11;97615.97;;;9.92;79.31
2188;BME280;1100;52.014;8.540;2023-03-14T01:00:38;97638.16;;;9.92;79.31
2188;BME280;1100;52.014;8.540;2023-03-14T01:03:04;97630.38;;;9.96;79.38
2188;BME280;1100;52.014;8.540;2023-03-14T01:05:29;97627.63;;;9.96;79.34
2188;BME280;1100;52.014;8.540;2023-03-14T01:07:55;97629.13;;;9.97;79.20
2188;BME280;1100;52.014;8.540;2023-03-14T01:10:20;97631.13;;;9.96;79.25
2188;BME280;1100;52.014;8.540;2023-03-14T01:12:45;97632.66;;;9.97;79.25
2188;BME280;1100;52.014;8.540;2023-03-14T01:15:11;97618.03;;;9.97;79.12
2188;BME280;1100;52.014;8.540;2023-03-14T01:17:36;97626.13;;;10.01;79.21
2188;BME280;1100;52.014;8.540;2023-03-14T01:20:03;97618.53;;;10.01;79.10
2188;BME280;1100;52.014;8.540;2023-03-14T01:22:30;97616.53;;;10.02;79.07
2188;BME280;1100;52.014;8.540;2023-03-14T01:24:55;97595.84;;;10.03;78.86
2188;BME280;1100;52.014;8.540;2023-03-14T01:27:20;97602.44;;;10.05;78.86
2188;BME280;1100;52.014;8.540;2023-03-14T01:29:46;97593.34;;;10.05;78.95
2188;BME280;1100;52.014;8.540;2023-03-14T01:32:12;97592.31;;;10.02;78.95
2188;BME280;1100;52.014;8.540;2023-03-14T01:34:37;97578.69;;;10.04;78.98
2188;BME280;1100;52.014;8.540;2023-03-14T01:37:03;97565.59;;;10.05;78.73
2188;BME280;1100;52.014;8.540;2023-03-14T01:39:29;97575.91;;;10.04;78.72
2188;BME280;1100;52.014;8.540;2023-03-14T01:41:54;97580.97;;;10.06;78.71
2188;BME280;1100;52.014;8.540;2023-03-14T01:44:19;97597.41;;;10.09;78.40
2188;BME280;1100;52.014;8.540;2023-03-14T01:46:45;97595.91;;;10.08;78.31
2188;BME280;1100;52.014;8.540;2023-03-14T01:49:27;97580.22;;;10.05;78.53
2188;BME280;1100;52.014;8.540;2023-03-14T01:54:43;97580.22;;;10.05;78.46
2188;BME280;1100;52.014;8.540;2023-03-14T01:57:29;97590.84;;;10.07;78.31
2188;BME280;1100;52.014;8.540;2023-03-14T02:00:02;97591.06;;;10.03;78.23
2188;BME280;1100;52.014;8.540;2023-03-14T02:02:34;97580.72;;;10.04;78.34
2188;BME280;1100;52.014;8.540;2023-03-14T02:04:59;97584.00;;;10.02;78.14
2188;BME280;1100;52.014;8.540;2023-03-14T02:07:38;97563.03;;;10.01;78.43
2188;BME280;1100;52.014;8.540;2023-03-14T02:10:05;97565.56;;;9.99;78.04
2188;BME280;1100;52.014;8.540;2023-03-14T02:12:31;97554.22;;;10.03;78.25
2188;BME280;1100;52.014;8.540;2023-03-14T02:14:56;97566.09;;;10.03;78.02
2188;BME280;1100;52.014;8.540;2023-03-14T02:17:22;97559.75;;;10.03;78.18
2188;BME280;1100;52.014;8.540;2023-03-14T02:20:12;97541.09;;;10.03;77.91
2188;BME280;1100;52.014;8.540;2023-03-14T02:22:40;97546.16;;;10.05;77.98
2188;BME280;1100;52.014;8.540;2023-03-14T02:25:14;97540.13;;;10.06;77.77
2188;BME280;1100;52.014;8.540;2023-03-14T02:27:42;97559.75;;;10.03;77.65
2188;BME280;1100;52.014;8.540;2023-03-14T02:30:12;97595.72;;;9.80;77.60
2188;BME280;1100;52.014;8.540;2023-03-14T02:32:43;97630.16;;;9.29;77.85
2188;BME280;1100;52.014;8.540;2023-03-14T02:35:12;97630.75;;;8.59;78.40
2188;BME280;1100;52.014;8.540;2023-03-14T02:37:46;97628.66;;;7.97;79.63
2188;BME280;1100;52.014;8.540;2023-03-14T02:40:13;97629.31;;;7.56;81.01
2188;BME280;1100;52.014;8.540;2023-03-14T02:42:38;97612.69;;;7.35;82.42
2188;BME280;1100;52.014;8.540;2023-03-14T02:47:37;97608.41;;;7.04;82.43
2188;BME280;1100;52.014;8.540;2023-03-14T02:50:11;97609.25;;;6.95;82.73
2188;BME280;1100;52.014;8.540;2023-03-14T02:52:37;97599.34;;;6.89;83.21
2188;BME280;1100;52.014;8.540;2023-03-14T02:55:03;97591.25;;;6.85;83.08
2188;BME280;1100;52.014;8.540;2023-03-14T02:57:28;97589.75;;;6.84;83.52
2188;BME280;1100;52.014;8.540;2023-03-14T02:59:54;97599.06;;;6.87;83.47
2188;BME280;1100;52.014;8.540;2023-03-14T03:02:19;97576.00;;;6.90;84.11
2188;BME280;1100;52.014;8.540;2023-03-14T03:04:44;97592.28;;;6.88;83.72
2188;BME280;1100;52.014;8.540;2023-03-14T03:07:10;97586.78;;;6.88;83.96
2188;BME280;1100;52.014;8.540;2023-03-14T03:09:35;97585.81;;;6.91;85.26
2188;BME280;1100;52.014;8.540;2023-03-14T03:12:00;97577.53;;;6.91;84.86
2188;BME280;1100;52.014;8.540;2023-03-14T03:14:26;97582.09;;;6.94;85.17
2188;BME280;1100;52.014;8.540;2023-03-14T03:16:51;97585.47;;;6.98;85.77
2188;BME280;1100;52.014;8.540;2023-03-14T03:19:16;97579.94;;;6.98;85.52
2188;BME280;1100;52.014;8.540;2023-03-14T03:21:43;97578.69;;;6.99;85.86
2188;BME280;1100;52.014;8.540;2023-03-14T03:24:08;97575.25;;;7.04;86.25
2188;BME280;1100;52.014;8.540;2023-03-14T03:26:35;97572.59;;;7.10;86.20
2188;BME280;1100;52.014;8.540;2023-03-14T03:29:01;97571.44;;;7.17;86.89
2188;BME280;1100;52.014;8.540;2023-03-14T03:31:27;97563.91;;;7.17;86.71
2188;BME280;1100;52.014;8.540;2023-03-14T03:33:52;97566.47;;;7.21;86.66
2188;BME280;1100;52.014;8.540;2023-03-14T03:36:22;97564.97;;;7.20;86.22
2188;BME280;1100;52.014;8.540;2023-03-14T03:38:47;97566.47;;;7.21;86.22
2188;BME280;1100;52.014;8.540;2023-03-14T03:41:13;97568.00;;;7.22;86.48
2188;BME280;1100;52.014;8.540;2023-03-14T03:43:38;97560.78;;;7.25;87.13
2188;BME280;1100;52.014;8.540;2023-03-14T03:46:04;97564.56;;;7.27;86.88
2188;BME280;1100;52.014;8.540;2023-03-14T03:48:30;97564.56;;;7.27;87.12
2188;BME280;1100;52.014;8.540;2023-03-14T03:50:56;97567.03;;;7.25;86.86
2188;BME280;1100;52.014;8.540;2023-03-14T03:53:21;97561.25;;;7.23;86.76
2188;BME280;1100;52.014;8.540;2023-03-14T03:55:46;97559.44;;;7.20;86.81
2188;BME280;1100;52.014;8.540;2023-03-14T03:58:12;97563.72;;;7.21;87.14
2188;BME280;1100;52.014;8.540;2023-03-14T04:00:37;97564.50;;;7.21;86.82
2188;BME280;1100;52.014;8.540;2023-03-14T04:03:04;97556.47;;;7.23;87.67
2188;BME280;1100;52.014;8.540;2023-03-14T04:05:30;97554.19;;;7.22;87.01
2188;BME280;1100;52.014;8.540;2023-03-14T04:07:55;97550.09;;;7.17;87.01
2188;BME280;1100;52.014;8.540;2023-03-14T04:10:20;97550.38;;;7.19;87.95
2188;BME280;1100;52.014;8.540;2023-03-14T04:12:46;97550.56;;;7.16;87.22
2188;BME280;1100;52.014;8.540;2023-03-14T04:15:11;97550.78;;;7.12;87.53
2188;BME280;1100;52.014;8.540;2023-03-14T04:17:36;97541.91;;;7.08;87.64
2188;BME280;1100;52.014;8.540;2023-03-14T04:20:02;97550.78;;;7.12;88.22
2188;BME280;1100;52.014;8.540;2023-03-14T04:22:28;97553.31;;;7.16;88.17
2188;BME280;1100;52.014;8.540;2023-03-14T04:24:53;97545.81;;;7.16;88.39
2188;BME280;1100;52.014;8.540;2023-03-14T04:27:18;97548.56;;;7.16;88.11
2188;BME280;1100;52.014;8.540;2023-03-14T04:29:44;97546.09;;;7.18;87.96
2188;BME280;1100;52.014;8.540;2023-03-14T04:32:09;97529.22;;;7.16;88.51
2188;BME280;1100;52.014;8.540;2023-03-14T04:34:35;97536.00;;;7.15;88.07
2188;BME280;1100;52.014;8.540;2023-03-14T04:37:00;97521.13;;;7.13;88.12
2188;BME280;1100;52.014;8.540;2023-03-14T04:39:26;97527.91;;;7.12;88.98
2188;BME280;1100;52.014;8.540;2023-03-14T04:41:51;97524.09;;;7.09;88.62
2188;BME280;1100;52.014;8.540;2023-03-14T04:44:17;97518.59;;;7.09;88.95
2188;BME280;1100;52.014;8.540;2023-03-14T04:46:43;97516.84;;;7.12;88.87
2188;BME280;1100;52.014;8.540;2023-03-14T04:49:08;97514.56;;;7.10;88.81
2188;BME280;1100;52.014;8.540;2023-03-14T04:51:34;97515.06;;;7.08;88.77
2188;BME280;1100;52.014;8.540;2023-03-14T04:53:59;97512.00;;;7.06;88.75
2188;BME280;1100;52.014;8.540;2023-03-14T04:56:24;97510.47;;;7.05;89.30
2188;BME280;1100;52.014;8.540;2023-03-14T04:58:50;97502.13;;;7.00;88.42
2188;BME280;1100;52.014;8.540;2023-03-14T05:01:15;97498.78;;;6.95;88.74
2188;BME280;1100;52.014;8.540;2023-03-14T05:03:41;97507.34;;;6.97;88.69
2188;BME280;1100;52.014;8.540;2023-03-14T05:06:06;97505.34;;;6.98;88.70
2188;BME280;1100;52.014;8.540;2023-03-14T05:08:32;97498.88;;;7.01;88.78
2188;BME280;1100;52.014;8.540;2023-03-14T05:10:58;97495.22;;;7.10;89.18
2188;BME280;1100;52.014;8.540;2023-03-14T05:13:23;97499.31;;;7.15;88.92
2188;BME280;1100;52.014;8.540;2023-03-14T05:15:49;97494.84;;;7.17;89.11
2188;BME280;1100;52.014;8.540;2023-03-14T05:18:18;97496.94;;;7.22;89.28
2188;BME280;1100;52.014;8.540;2023-03-14T05:20:43;97510.56;;;7.26;89.11
2188;BME280;1100;52.014;8.540;2023-03-14T05:23:09;97495.78;;;7.29;89.06
2188;BME280;1100;52.014;8.540;2023-03-14T05:25:35;97501.31;;;7.29;89.00
2188;BME280;1100;52.014;8.540;2023-03-14T05:28:00;97486.72;;;7.29;88.89
2188;BME280;1100;52.014;8.540;2023-03-14T05:30:26;97497.28;;;7.30;88.94
2188;BME280;1100;52.014;8.540;2023-03-14T05:32:53;97498.31;;;7.33;89.11
2188;BME280;1100;52.014;8.540;2023-03-14T05:35:18;97493.84;;;7.35;89.21
2188;BME280;1100;52.014;8.540;2023-03-14T05:37:43;97479.75;;;7.33;89.13
2188;BME280;1100;52.014;8.540;2023-03-14T05:40:09;97480.50;;;7.34;89.04
2188;BME280;1100;52.014;8.540;2023-03-14T05:42:35;97482.03;;;7.35;89.23
2188;BME280;1100;52.014;8.540;2023-03-14T05:45:00;97481.84;;;7.39;89.28
2188;BME280;1100;52.014;8.540;2023-03-14T05:47:25;97473.53;;;7.39;89.33
2188;BME280;1100;52.014;8.540;2023-03-14T05:49:51;97473.81;;;7.41;89.28
2188;BME280;1100;52.014;8.540;2023-03-14T05:52:16;97483.34;;;7.40;89.10
2188;BME280;1100;52.014;8.540;2023-03-14T05:54:42;97480.88;;;7.42;89.13
2188;BME280;1100;52.014;8.540;2023-03-14T05:57:07;97482.38;;;7.43;89.24
2188;BME280;1100;52.014;8.540;2023-03-14T05:59:33;97481.41;;;7.46;89.23
2188;BME280;1100;52.014;8.540;2023-03-14T06:01:58;97488.47;;;7.47;89.34
2188;BME280;1100;52.014;8.540;2023-03-14T06:04:24;97484.66;;;7.44;89.12
2188;BME280;1100;52.014;8.540;2023-03-14T06:06:50;97465.25;;;7.39;89.00
2188;BME280;1100;52.014;8.540;2023-03-14T06:09:15;97466.59;;;7.28;89.13
2188;BME280;1100;52.014;8.540;2023-03-14T06:11:40;97475.78;;;7.19;89.31
2188;BME280;1100;52.014;8.540;2023-03-14T06:14:06;97476.94;;;7.13;89.29
2188;BME280;1100;52.014;8.540;2023-03-14T06:16:31;97469.34;;;7.07;89.25
2188;BME280;1100;52.014;8.540;2023-03-14T06:18:57;97477.03;;;7.03;89.62
2188;BME280;1100;52.014;8.540;2023-03-14T06:21:25;97486.88;;;7.04;90.25
2188;BME280;1100;52.014;8.540;2023-03-14T06:23:51;97486.09;;;7.04;89.72
2188;BME280;1100;52.014;8.540;2023-03-14T06:26:19;97483.75;;;6.96;89.58
2188;BME280;1100;52.014;8.540;2023-03-14T06:28:45;97491.44;;;6.92;89.54
2188;BME280;1100;52.014;8.540;2023-03-14T06:31:11;97503.25;;;6.93;89.79
2188;BME280;1100;52.014;8.540;2023-03-14T06:33:37;97497.75;;;6.93;89.76
2188;BME280;1100;52.014;8.540;2023-03-14T06:36:06;97493.94;;;6.90;89.90
2188;BME280;1100;52.014;8.540;2023-03-14T06:38:31;97511.66;;;6.83;89.84
2188;BME280;1100;52.014;8.540;2023-03-14T06:41:05;97498.50;;;6.78;89.79
2188;BME280;1100;52.014;8.540;2023-03-14T06:43:34;97506.69;;;6.72;89.96
2188;BME280;1100;52.014;8.540;2023-03-14T06:45:59;97501.53;;;6.65;89.86
2188;BME280;1100;52.014;8.540;2023-03-14T06:48:25;97498.22;;;6.61;90.21
2188;BME280;1100;52.014;8.540;2023-03-14T06:50:50;97503.75;;;6.61;89.87
2188;BME280;1100;52.014;8.540;2023-03-14T06:53:15;97499.47;;;6.60;90.07
2188;BME280;1100;52.014;8.540;2023-03-14T06:55:41;97498.41;;;6.57;90.23
2188;BME280;1100;52.014;8.540;2023-03-14T06:58:08;97503.66;;;6.55;90.03
2188;BME280;1100;52.014;8.540;2023-03-14T07:00:34;97502.09;;;6.54;90.06
2188;BME280;1100;52.014;8.540;2023-03-14T07:02:59;97498.59;;;6.54;90.33
2188;BME280;1100;52.014;8.540;2023-03-14T07:05:25;97503.66;;;6.55;90.39
2188;BME280;1100;52.014;8.540;2023-03-14T07:07:50;97508.50;;;6.60;90.59
2188;BME280;1100;52.014;8.540;2023-03-14T07:10:15;97510.97;;;6.58;90.18
2188;BME280;1100;52.014;8.540;2023-03-14T07:12:41;97508.22;;;6.58;90.14
2188;BME280;1100;52.014;8.540;2023-03-14T07:15:07;97500.59;;;6.53;90.22
2188;BME280;1100;52.014;8.540;2023-03-14T07:17:33;97492.97;;;6.48;90.31
2188;BME280;1100;52.014;8.540;2023-03-14T07:19:58;97501.47;;;6.44;90.26
2188;BME280;1100;52.014;8.540;2023-03-14T07:22:24;97505.91;;;6.42;90.06
2188;BME280;1100;52.014;8.540;2023-03-14T07:24:49;97500.38;;;6.42;90.56
2188;BME280;1100;52.014;8.540;2023-03-14T07:27:15;97506.50;;;6.46;90.55
2188;BME280;1100;52.014;8.540;2023-03-14T07:29:40;97490.69;;;6.46;90.74
2188;BME280;1100;52.014;8.540;2023-03-14T07:32:05;97499.44;;;6.45;90.96
2188;BME280;1100;52.014;8.540;2023-03-14T07:34:31;97497.44;;;6.45;90.44
2188;BME280;1100;52.014;8.540;2023-03-14T07:36:56;97496.59;;;6.54;91.40
2188;BME280;1100;52.014;8.540;2023-03-14T07:39:22;97495.38;;;6.55;91.41
2188;BME280;1100;52.014;8.540;2023-03-14T07:41:47;97500.97;;;6.61;91.18
2188;BME280;1100;52.014;8.540;2023-03-14T07:44:12;97502.59;;;6.68;91.18
2188;BME280;1100;52.014;8.540;2023-03-14T07:46:37;97508.13;;;6.68;91.06
2188;BME280;1100;52.014;8.540;2023-03-14T07:49:03;97510.88;;;6.68;90.95
2188;BME280;1100;52.014;8.540;2023-03-14T07:51:28;97506.13;;;6.68;91.39
2188;BME280;1100;52.014;8.540;2023-03-14T07:53:53;97503.94;;;6.72;91.30
2188;BME280;1100;52.014;8.540;2023-03-14T07:56:19;97503.28;;;6.78;91.30
2188;BME280;1100;52.014;8.540;2023-03-14T07:58:44;97499.09;;;6.82;91.54
2188;BME280;1100;52.014;8.540;2023-03-14T08:01:09;97505.94;;;6.87;91.42
2188;BME280;1100;52.014;8.540;2023-03-14T08:03:35;97500.41;;;6.87;91.26
2188;BME280;1100;52.014;8.540;2023-03-14T08:06:00;97508.97;;;6.89;91.38
2188;BME280;1100;52.014;8.540;2023-03-14T08:08:25;97501.94;;;6.88;91.86
2188;BME280;1100;52.014;8.540;2023-03-14T08:10:51;97505.72;;;6.91;92.51
2188;BME280;1100;52.014;8.540;2023-03-14T08:13:16;97496.22;;;6.92;92.24
2188;BME280;1100;52.014;8.540;2023-03-14T08:15:41;97510.59;;;6.96;92.30
2188;BME280;1100;52.014;8.540;2023-03-14T08:18:07;97498.59;;;6.99;92.25
2188;BME280;1100;52.014;8.540;2023-03-14T08:20:32;97501.91;;;7.03;92.21
2188;BME280;1100;52.014;8.540;2023-03-14T08:23:00;97504.00;;;7.08;92.29
2188;BME280;1100;52.014;8.540;2023-03-14T08:25:27;97509.59;;;7.14;92.91
2188;BME280;1100;52.014;8.540;2023-03-14T08:27:52;97510.66;;;7.17;93.10
2188;BME280;1100;52.014;8.540;2023-03-14T08:30:19;97509.72;;;7.20;92.97
2188;BME280;1100;52.014;8.540;2023-03-14T08:32:45;97516.75;;;7.21;92.69
2188;BME280;1100;52.014;8.540;2023-03-14T08:35:11;97522.28;;;7.21;92.62
2188;BME280;1100;52.014;8.540;2023-03-14T08:37:37;97515.22;;;7.20;92.54
2188;BME280;1100;52.014;8.540;2023-03-14T08:40:04;97520.53;;;7.23;93.00
2188;BME280;1100;52.014;8.540;2023-03-14T08:42:34;97517.78;;;7.23;92.74
2188;BME280;1100;52.014;8.540;2023-03-14T08:45:00;97508.28;;;7.25;92.91
2188;BME280;1100;52.014;8.540;2023-03-14T08:47:25;97519.09;;;7.28;93.22
2188;BME280;1100;52.014;8.540;2023-03-14T08:49:51;97516.44;;;7.34;92.91
2188;BME280;1100;52.014;8.540;2023-03-14T08:52:16;97515.25;;;7.41;92.96
2188;BME280;1100;52.014;8.540;2023-03-14T08:54:43;97511.53;;;7.44;92.89
2188;BME280;1100;52.014;8.540;2023-03-14T08:57:09;97517.91;;;7.50;93.48
2188;BME280;1100;52.014;8.540;2023-03-14T08:59:34;97520.75;;;7.56;93.00
2188;BME280;1100;52.014;8.540;2023-03-14T09:02:01;97519.31;;;7.60;93.75
2188;BME280;1100;52.014;8.540;2023-03-14T09:04:29;97514.34;;;7.65;93.38
2188;BME280;1100;52.014;8.540;2023-03-14T09:06:54;97515.47;;;7.73;93.83
2188;BME280;1100;52.014;8.540;2023-03-14T09:09:19;97512.94;;;7.75;93.39
2188;BME280;1100;52.014;8.540;2023-03-14T09:11:45;97517.31;;;7.82;93.76
2188;BME280;1100;52.014;8.540;2023-03-14T09:14:10;97526.66;;;7.84;93.38
2188;BME280;1100;52.014;8.540;2023-03-14T09:16:35;97528.25;;;7.91;94.06
2188;BME280;1100;52.014;8.540;2023-03-14T09:19:01;97519.75;;;7.95;93.42
2188;BME280;1100;52.014;8.540;2023-03-14T09:21:26;97517.81;;;8.01;93.34
2188;BME280;1100;52.014;8.540;2023-03-14T09:23:52;97510.34;;;8.07;93.73
2188;BME280;1100;52.014;8.540;2023-03-14T09:26:18;97530.53;;;8.14;93.55
2188;BME280;1100;52.014;8.540;2023-03-14T09:28:43;97524.56;;;8.21;93.60
2188;BME280;1100;52.014;8.540;2023-03-14T09:31:10;97514.13;;;8.31;93.74
2188;BME280;1100;52.014;8.540;2023-03-14T09:33:36;97515.22;;;8.39;93.73
2188;BME280;1100;52.014;8.540;2023-03-14T09:36:02;97519.81;;;8.48;93.84
2188;BME280;1100;52.014;8.540;2023-03-14T09:38:28;97529.75;;;8.55;93.88
2188;BME280;1100;52.014;8.540;2023-03-14T09:40:54;97525.50;;;8.59;93.73
2188;BME280;1100;52.014;8.540;2023-03-14T09:43:21;97517.03;;;8.69;93.44
2188;BME280;1100;52.014;8.540;2023-03-14T09:45:48;97522.09;;;8.70;93.91
2188;BME280;1100;52.014;8.540;2023-03-14T09:48:20;97521.09;;;8.74;93.58
2188;BME280;1100;52.014;8.540;2023-03-14T09:50:51;97529.19;;;8.77;93.45
2188;BME280;1100;52.014;8.540;2023-03-14T09:53:27;97522.94;;;8.82;93.53
2188;BME280;1100;52.014;8.540;2023-03-14T09:55:57;97531.53;;;8.84;93.24
2188;BME280;1100;52.014;8.540;2023-03-14T09:58:24;97537.56;;;8.83;93.01
2188;BME280;1100;52.014;8.540;2023-03-14T10:00:50;97523.22;;;8.84;93.17
2188;BME280;1100;52.014;8.540;2023-03-14T10:03:21;97530.28;;;8.85;93.12
2188;BME280;1100;52.014;8.540;2023-03-14T10:05:47;97531.75;;;8.81;93.20
2188;BME280;1100;52.014;8.540;2023-03-14T10:08:13;97534.50;;;8.81;93.31
2188;BME280;1100;52.014;8.540;2023-03-14T10:10:38;97542.00;;;8.75;93.29
2188;BME280;1100;52.014;8.540;2023-03-14T10:15:40;97557.75;;;8.63;93.48
2188;BME280;1100;52.014;8.540;2023-03-14T10:18:11;97556.22;;;8.62;93.79
2188;BME280;1100;52.014;8.540;2023-03-14T10:20:43;97560.25;;;8.60;93.81
2188;BME280;1100;52.014;8.540;2023-03-14T10:26:01;97563.31;;;8.63;94.01
2188;BME280;1100;52.014;8.540;2023-03-14T10:28:28;97570.56;;;8.60;94.00
2188;BME280;1100;52.014;8.540;2023-03-14T10:30:54;97581.63;;;8.60;94.21
2188;BME280;1100;52.014;8.540;2023-03-14T10:33:23;97573.56;;;8.56;93.96
2188;BME280;1100;52.014;8.540;2023-03-14T10:35:57;97583.00;;;8.50;93.81
2188;BME280;1100;52.014;8.540;2023-03-14T10:38:29;97605.78;;;8.39;93.82
2188;BME280;1100;52.014;8.540;2023-03-14T10:41:27;97651.59;;;8.19;93.05
2188;BME280;1100;52.014;8.540;2023-03-14T10:43:59;97654.31;;;7.47;91.11
2188;BME280;1100;52.014;8.540;2023-03-14T10:46:27;97665.56;;;6.98;91.14
2188;BME280;1100;52.014;8.540;2023-03-14T10:48:55;97674.41;;;6.63;91.52
2188;BME280;1100;52.014;8.540;2023-03-14T10:51:26;97681.00;;;6.41;92.38
2188;BME280;1100;52.014;8.540;2023-03-14T10:56:27;97706.88;;;6.19;92.87
2188;BME280;1100;52.014;8.540;2023-03-14T10:58:58;97717.78;;;6.13;92.88
2188;BME280;1100;52.014;8.540;2023-03-14T11:01:44;97739.25;;;6.09;93.15
2188;BME280;1100;52.014;8.540;2023-03-14T11:04:47;97774.06;;;6.06;93.25
2188;BME280;1100;52.014;8.540;2023-03-14T11:07:28;97765.69;;;5.82;92.69
2188;BME280;1100;52.014;8.540;2023-03-14T11:15:16;97808.16;;;5.38;93.02
2188;BME280;1100;52.014;8.540;2023-03-14T11:18:03;97846.06;;;5.15;92.73
2188;BME280;1100;52.014;8.540;2023-03-14T11:20:46;97862.69;;;4.83;92.12
2188;BME280;1100;52.014;8.540;2023-03-14T11:23:21;97889.97;;;4.58;92.43
2188;BME280;1100;52.014;8.540;2023-03-14T11:28:19;97910.38;;;4.16;92.16
2188;BME280;1100;52.014;8.540;2023-03-14T11:31:26;97928.50;;;4.04;92.42
2188;BME280;1100;52.014;8.540;2023-03-14T11:36:31;97964.97;;;3.82;92.05
2188;BME280;1100;52.014;8.540;2023-03-14T11:38:59;97998.25;;;3.49;91.60
2188;BME280;1100;52.014;8.540;2023-03-14T11:43:58;98009.69;;;3.08;92.21
2188;BME280;1100;52.014;8.540;2023-03-14T11:46:32;98009.94;;;3.01;91.98
2188;BME280;1100;52.014;8.540;2023-03-14T11:49:13;98025.28;;;2.98;92.50
2188;BME280;1100;52.014;8.540;2023-03-14T11:51:46;98026.41;;;3.01;92.52
2188;BME280;1100;52.014;8.540;2023-03-14T11:54:33;98045.16;;;3.03;92.74
2188;BME280;1100;52.014;8.540;2023-03-14T11:57:02;98037.81;;;2.99;92.48
2188;BME280;1100;52.014;8.540;2023-03-14T12:13:11;98136.66;;;3.26;92.68
2188;BME280;1100;52.014;8.540;2023-03-14T12:15:57;98152.63;;;3.31;92.31
2188;BME280;1100;52.014;8.540;2023-03-14T12:18:31;98157.13;;;3.51;92.76
2188;BME280;1100;52.014;8.540;2023-03-14T12:20:58;98170.91;;;3.64;92.33
2188;BME280;1100;52.014;8.540;2023-03-14T12:23:25;98179.34;;;3.69;92.03
2188;BME280;1100;52.014;8.540;2023-03-14T12:26:27;98205.06;;;3.76;92.31
2188;BME280;1100;52.014;8.540;2023-03-14T12:29:17;98210.47;;;3.79;92.48
2188;BME280;1100;52.014;8.540;2023-03-14T12:31:45;98210.34;;;3.83;91.86
2188;BME280;1100;52.014;8.540;2023-03-14T12:41:51;98228.28;;;4.14;91.58
2188;BME280;1100;52.014;8.540;2023-03-14T12:49:44;98232.22;;;4.39;91.52
2188;BME280;1100;52.014;8.540;2023-03-14T12:52:19;98231.44;;;4.51;91.67
2188;BME280;1100;52.014;8.540;2023-03-14T12:57:37;98243.34;;;4.48;91.74
2188;BME280;1100;52.014;8.540;2023-03-14T13:00:32;98248.63;;;4.42;91.03
2188;BME280;1100;52.014;8.540;2023-03-14T13:03:15;98256.44;;;4.44;91.40
2188;BME280;1100;52.014;8.540;2023-03-14T13:11:08;98287.78;;;4.33;91.09
2188;BME280;1100;52.014;8.540;2023-03-14T13:13:37;98292.97;;;4.31;91.09
2188;BME280;1100;52.014;8.540;2023-03-14T13:16:05;98309.34;;;4.35;91.49
2188;BME280;1100;52.014;8.540;2023-03-14T13:18:42;98330.19;;;4.36;91.22
2188;BME280;1100;52.014;8.540;2023-03-14T13:21:13;98342.91;;;4.17;90.51
2188;BME280;1100;52.014;8.540;2023-03-14T13:23:40;98367.28;;;3.89;90.14
2188;BME280;1100;52.014;8.540;2023-03-14T13:26:11;98381.91;;;3.56;90.29
2188;BME280;1100;52.014;8.540;2023-03-14T13:28:38;98388.69;;;3.34;90.34
2188;BME280;1100;52.014;8.540;2023-03-14T13:31:03;98390.25;;;3.19;90.50
2188;BME280;1100;52.014;8.540;2023-03-14T13:33:30;98382.41;;;3.04;90.67
2188;BME280;1100;52.014;8.540;2023-03-14T13:36:01;98390.03;;;2.96;90.65
2188;BME280;1100;52.014;8.540;2023-03-14T13:38:32;98388.47;;;2.95;90.71
2188;BME280;1100;52.014;8.540;2023-03-14T13:41:00;98395.41;;;3.00;90.98
2188;BME280;1100;52.014;8.540;2023-03-14T13:43:31;98400.66;;;3.11;91.47
2188;BME280;1100;52.014;8.540;2023-03-14T13:46:15;98404.69;;;3.23;91.29
2188;BME280;1100;52.014;8.540;2023-03-14T13:48:50;98414.63;;;3.33;91.36
2188;BME280;1100;52.014;8.540;2023-03-14T13:51:18;98417.97;;;3.41;91.46
2188;BME280;1100;52.014;8.540;2023-03-14T13:53:46;98421.31;;;3.49;91.52
2188;BME280;1100;52.014;8.540;2023-03-14T13:56:12;98434.41;;;3.58;91.38
2188;BME280;1100;52.014;8.540;2023-03-14T13:58:39;98442.94;;;3.64;91.42
2188;BME280;1100;52.014;8.540;2023-03-14T14:01:23;98459.22;;;3.71;91.46
2188;BME280;1100;52.014;8.540;2023-03-14T14:03:51;98464.97;;;3.77;91.59
2188;BME280;1100;52.014;8.540;2023-03-14T14:08:58;98476.53;;;3.84;91.44
2188;BME280;1100;52.014;8.540;2023-03-14T14:11:51;98489.69;;;3.93;91.48
2188;BME280;1100;52.014;8.540;2023-03-14T14:14:34;98498.81;;;4.20;90.71
2188;BME280;1100;52.014;8.540;2023-03-14T14:17:03;98492.31;;;4.69;89.75
2188;BME280;1100;52.014;8.540;2023-03-14T14:19:31;98503.25;;;4.99;89.92
2188;BME280;1100;52.014;8.540;2023-03-14T14:21:58;98508.56;;;5.06;90.57
2188;BME280;1100;52.014;8.540;2023-03-14T14:24:28;98514.84;;;5.07;90.03
2188;BME280;1100;52.014;8.540;2023-03-14T14:26:59;98526.06;;;4.99;89.69
2188;BME280;1100;52.014;8.540;2023-03-14T14:29:28;98529.34;;;4.94;89.41
2188;BME280;1100;52.014;8.540;2023-03-14T14:32:11;98544.31;;;4.80;88.92
2188;BME280;1100;52.014;8.540;2023-03-14T14:34:57;98553.56;;;4.73;88.99
2188;BME280;1100;52.014;8.540;2023-03-14T14:37:28;98558.97;;;4.77;89.03
2188;BME280;1100;52.014;8.540;2023-03-14T14:39:59;98563.19;;;4.95;88.94
2188;BME280;1100;52.014;8.540;2023-03-14T14:42:30;98578.31;;;5.03;88.57